sensor_id;sensor_type;location;lat;lon;timestamp;pressure;altitude;pressure_sealevel;temperature
29423;BMP180;16399;51.686;8.684;2023-07-24T00:02:49;98895.00;;;18.90
29423;BMP180;16399;51.686;8.684;2023-07-24T00:05:52;98885.00;;;18.90
29423;BMP180;16399;51.686;8.684;2023-07-24T00:08:54;98884.00;;;18.90
29423;BMP180;16399;51.686;8.684;2023-07-24T00:11:56;98881.00;;;18.80
29423;BMP180;16399;51.686;8.684;2023-07-24T00:14:59;98873.00;;;18.80
29423;BMP180;16399;51.686;8.684;2023-07-24T00:18:01;98868.00;;;18.80
29423;BMP180;16399;51.686;8.684;2023-07-24T00:21:03;98877.00;;;18.90
29423;BMP180;16399;51.686;8.684;2023-07-24T00:24:06;98865.00;;;18.90
29423;BMP180;16399;51.686;8.684;2023-07-24T00:27:08;98870.00;;;18.90
29423;BMP180;16399;51.686;8.684;2023-07-24T00:30:10;98866.00;;;18.90
29423;BMP180;16399;51.686;8.684;2023-07-24T00:33:13;98859.00;;;18.90
29423;BMP180;16399;51.686;8.684;2023-07-24T00:36:15;98861.00;;;18.90
29423;BMP180;16399;51.686;8.684;2023-07-24T00:39:17;98863.00;;;18.90
29423;BMP180;16399;51.686;8.684;2023-07-24T00:42:19;98857.00;;;18.90
29423;BMP180;16399;51.686;8.684;2023-07-24T00:45:23;98861.00;;;18.90
29423;BMP180;16399;51.686;8.684;2023-07-24T00:48:26;98857.00;;;18.90
29423;BMP180;16399;51.686;8.684;2023-07-24T00:51:28;98846.00;;;18.90
29423;BMP180;16399;51.686;8.684;2023-07-24T00:54:32;98849.00;;;19.00
29423;BMP180;16399;51.686;8.684;2023-07-24T00:57:36;98853.00;;;19.00
29423;BMP180;16399;51.686;8.684;2023-07-24T01:00:39;98851.00;;;19.00
29423;BMP180;16399;51.686;8.684;2023-07-24T01:03:42;98849.00;;;19.00
29423;BMP180;16399;51.686;8.684;2023-07-24T01:06:44;98849.00;;;19.00
29423;BMP180;16399;51.686;8.684;2023-07-24T01:09:47;98843.00;;;19.00
29423;BMP180;16399;51.686;8.684;2023-07-24T01:12:57;98846.00;;;19.00
29423;BMP180;16399;51.686;8.684;2023-07-24T01:16:10;98835.00;;;19.00
29423;BMP180;16399;51.686;8.684;2023-07-24T01:19:33;98846.00;;;19.00
29423;BMP180;16399;51.686;8.684;2023-07-24T01:25:48;98834.00;;;19.00
29423;BMP180;16399;51.686;8.684;2023-07-24T01:28:48;98821.00;;;19.00
29423;BMP180;16399;51.686;8.684;2023-07-24T01:31:51;98809.00;;;19.00
29423;BMP180;16399;51.686;8.684;2023-07-24T01:34:53;98814.00;;;19.00
29423;BMP180;16399;51.686;8.684;2023-07-24T01:37:56;98816.00;;;19.00
29423;BMP180;16399;51.686;8.684;2023-07-24T01:40:59;98815.00;;;18.90
29423;BMP180;16399;51.686;8.684;2023-07-24T01:44:02;98813.00;;;18.90
29423;BMP180;16399;51.686;8.684;2023-07-24T01:47:04;98819.00;;;18.90
29423;BMP180;16399;51.686;8.684;2023-07-24T01:50:07;98823.00;;;18.90
29423;BMP180;16399;51.686;8.684;2023-07-24T01:53:09;98813.00;;;18.90
29423;BMP180;16399;51.686;8.684;2023-07-24T01:56:12;98811.00;;;18.90
29423;BMP180;16399;51.686;8.684;2023-07-24T01:59:14;98811.00;;;18.90
29423;BMP180;16399;51.686;8.684;2023-07-24T02:02:16;98805.00;;;18.90
29423;BMP180;16399;51.686;8.684;2023-07-24T02:05:19;98799.00;;;18.90
29423;BMP180;16399;51.686;8.684;2023-07-24T02:08:21;98803.00;;;18.90
29423;BMP180;16399;51.686;8.684;2023-07-24T02:11:23;98796.00;;;18.90
29423;BMP180;16399;51.686;8.684;2023-07-24T02:14:25;98798.00;;;18.90
29423;BMP180;16399;51.686;8.684;2023-07-24T02:17:28;98785.00;;;18.90
29423;BMP180;16399;51.686;8.684;2023-07-24T02:20:30;98791.00;;;18.90
29423;BMP180;16399;51.686;8.684;2023-07-24T02:23:32;98785.00;;;18.90
29423;BMP180;16399;51.686;8.684;2023-07-24T02:26:35;98776.00;;;18.90
29423;BMP180;16399;51.686;8.684;2023-07-24T02:29:38;98781.00;;;18.90
29423;BMP180;16399;51.686;8.684;2023-07-24T02:32:40;98776.00;;;18.90
29423;BMP180;16399;51.686;8.684;2023-07-24T02:35:42;98774.00;;;18.90
29423;BMP180;16399;51.686;8.684;2023-07-24T02:38:45;98771.00;;;18.90
29423;BMP180;16399;51.686;8.684;2023-07-24T02:41:48;98773.00;;;18.90
29423;BMP180;16399;51.686;8.684;2023-07-24T02:44:50;98768.00;;;18.90
29423;BMP180;16399;51.686;8.684;2023-07-24T02:47:54;98773.00;;;18.90
29423;BMP180;16399;51.686;8.684;2023-07-24T02:50:56;98778.00;;;18.90
29423;BMP180;16399;51.686;8.684;2023-07-24T02:53:58;98770.00;;;18.80
29423;BMP180;16399;51.686;8.684;2023-07-24T02:57:01;98770.00;;;18.80
29423;BMP180;16399;51.686;8.684;2023-07-24T03:00:04;98768.00;;;18.80
29423;BMP180;16399;51.686;8.684;2023-07-24T03:03:06;98764.00;;;18.70
29423;BMP180;16399;51.686;8.684;2023-07-24T03:06:09;98772.00;;;18.70
29423;BMP180;16399;51.686;8.684;2023-07-24T03:09:11;98762.00;;;18.60
29423;BMP180;16399;51.686;8.684;2023-07-24T03:12:13;98760.00;;;18.50
29423;BMP180;16399;51.686;8.684;2023-07-24T03:15:16;98755.00;;;18.50
29423;BMP180;16399;51.686;8.684;2023-07-24T03:18:18;98766.00;;;18.40
29423;BMP180;16399;51.686;8.684;2023-07-24T03:21:21;98760.00;;;18.30
29423;BMP180;16399;51.686;8.684;2023-07-24T03:24:23;98748.00;;;18.30
29423;BMP180;16399;51.686;8.684;2023-07-24T03:27:25;98742.00;;;18.30
29423;BMP180;16399;51.686;8.684;2023-07-24T03:30:28;98733.00;;;18.30
29423;BMP180;16399;51.686;8.684;2023-07-24T03:33:30;98734.00;;;18.30
29423;BMP180;16399;51.686;8.684;2023-07-24T03:36:32;98741.00;;;18.30
29423;BMP180;16399;51.686;8.684;2023-07-24T03:39:36;98728.00;;;18.30
29423;BMP180;16399;51.686;8.684;2023-07-24T03:42:38;98706.00;;;18.30
29423;BMP180;16399;51.686;8.684;2023-07-24T03:45:41;98700.00;;;18.30
29423;BMP180;16399;51.686;8.684;2023-07-24T03:48:44;98707.00;;;18.30
29423;BMP180;16399;51.686;8.684;2023-07-24T03:51:46;98695.00;;;18.40
29423;BMP180;16399;51.686;8.684;2023-07-24T03:54:50;98684.00;;;18.40
29423;BMP180;16399;51.686;8.684;2023-07-24T03:57:52;98665.00;;;18.50
29423;BMP180;16399;51.686;8.684;2023-07-24T04:00:55;98679.00;;;18.60
29423;BMP180;16399;51.686;8.684;2023-07-24T04:03:58;98663.00;;;18.60
29423;BMP180;16399;51.686;8.684;2023-07-24T04:07:00;98670.00;;;18.70
29423;BMP180;16399;51.686;8.684;2023-07-24T04:10:04;98656.00;;;18.80
29423;BMP180;16399;51.686;8.684;2023-07-24T04:13:06;98659.00;;;19.00
29423;BMP180;16399;51.686;8.684;2023-07-24T04:16:08;98656.00;;;19.30
29423;BMP180;16399;51.686;8.684;2023-07-24T04:19:11;98655.00;;;19.70
29423;BMP180;16399;51.686;8.684;2023-07-24T04:22:13;98652.00;;;19.80
29423;BMP180;16399;51.686;8.684;2023-07-24T04:25:15;98660.00;;;19.80
29423;BMP180;16399;51.686;8.684;2023-07-24T04:28:18;98659.00;;;19.70
29423;BMP180;16399;51.686;8.684;2023-07-24T04:31:20;98660.00;;;19.60
29423;BMP180;16399;51.686;8.684;2023-07-24T04:34:22;98636.00;;;19.40
29423;BMP180;16399;51.686;8.684;2023-07-24T04:37:24;98625.00;;;19.40
29423;BMP180;16399;51.686;8.684;2023-07-24T04:40:27;98629.00;;;19.30
29423;BMP180;16399;51.686;8.684;2023-07-24T04:43:29;98638.00;;;19.30
29423;BMP180;16399;51.686;8.684;2023-07-24T04:46:32;98646.00;;;19.20
29423;BMP180;16399;51.686;8.684;2023-07-24T04:49:34;98650.00;;;19.20
29423;BMP180;16399;51.686;8.684;2023-07-24T04:52:36;98653.00;;;19.20
29423;BMP180;16399;51.686;8.684;2023-07-24T04:55:38;98641.00;;;19.20
29423;BMP180;16399;51.686;8.684;2023-07-24T04:58:41;98644.00;;;19.20
29423;BMP180;16399;51.686;8.684;2023-07-24T05:01:43;98638.00;;;19.30
29423;BMP180;16399;51.686;8.684;2023-07-24T05:04:45;98642.00;;;19.30
29423;BMP180;16399;51.686;8.684;2023-07-24T05:07:48;98648.00;;;19.40
29423;BMP180;16399;51.686;8.684;2023-07-24T05:10:59;98633.00;;;19.50
29423;BMP180;16399;51.686;8.684;2023-07-24T05:14:01;98637.00;;;19.60
29423;BMP180;16399;51.686;8.684;2023-07-24T05:17:04;98628.00;;;19.80
29423;BMP180;16399;51.686;8.684;2023-07-24T05:20:07;98634.00;;;20.20
29423;BMP180;16399;51.686;8.684;2023-07-24T05:23:09;98636.00;;;20.50
29423;BMP180;16399;51.686;8.684;2023-07-24T05:26:12;98627.00;;;20.60
29423;BMP180;16399;51.686;8.684;2023-07-24T05:29:14;98629.00;;;20.60
29423;BMP180;16399;51.686;8.684;2023-07-24T05:32:16;98632.00;;;20.60
29423;BMP180;16399;51.686;8.684;2023-07-24T05:35:19;98631.00;;;20.50
29423;BMP180;16399;51.686;8.684;2023-07-24T05:38:21;98630.00;;;20.50
29423;BMP180;16399;51.686;8.684;2023-07-24T05:41:23;98619.00;;;20.40
29423;BMP180;16399;51.686;8.684;2023-07-24T05:44:26;98624.00;;;20.40
29423;BMP180;16399;51.686;8.684;2023-07-24T05:47:28;98620.00;;;20.40
29423;BMP180;16399;51.686;8.684;2023-07-24T05:50:30;98623.00;;;20.40
29423;BMP180;16399;51.686;8.684;2023-07-24T05:53:33;98611.00;;;20.30
29423;BMP180;16399;51.686;8.684;2023-07-24T05:56:36;98624.00;;;20.30
29423;BMP180;16399;51.686;8.684;2023-07-24T05:59:38;98628.00;;;20.30
29423;BMP180;16399;51.686;8.684;2023-07-24T06:02:40;98627.00;;;20.20
29423;BMP180;16399;51.686;8.684;2023-07-24T06:05:42;98617.00;;;20.20
29423;BMP180;16399;51.686;8.684;2023-07-24T06:08:45;98618.00;;;20.20
29423;BMP180;16399;51.686;8.684;2023-07-24T06:11:48;98627.00;;;20.20
29423;BMP180;16399;51.686;8.684;2023-07-24T06:14:50;98621.00;;;20.20
29423;BMP180;16399;51.686;8.684;2023-07-24T06:17:53;98634.00;;;20.30
29423;BMP180;16399;51.686;8.684;2023-07-24T06:20:55;98626.00;;;20.30
29423;BMP180;16399;51.686;8.684;2023-07-24T06:23:57;98624.00;;;20.40
29423;BMP180;16399;51.686;8.684;2023-07-24T06:27:03;98622.00;;;20.50
29423;BMP180;16399;51.686;8.684;2023-07-24T06:30:07;98631.00;;;20.60
29423;BMP180;16399;51.686;8.684;2023-07-24T06:33:09;98627.00;;;20.70
29423;BMP180;16399;51.686;8.684;2023-07-24T06:36:12;98625.00;;;20.80
29423;BMP180;16399;51.686;8.684;2023-07-24T06:39:14;98612.00;;;20.90
29423;BMP180;16399;51.686;8.684;2023-07-24T06:42:17;98621.00;;;21.00
29423;BMP180;16399;51.686;8.684;2023-07-24T06:45:19;98616.00;;;21.20
29423;BMP180;16399;51.686;8.684;2023-07-24T06:48:21;98630.00;;;21.20
29423;BMP180;16399;51.686;8.684;2023-07-24T06:51:23;98639.00;;;21.10
29423;BMP180;16399;51.686;8.684;2023-07-24T06:54:26;98688.00;;;21.00
29423;BMP180;16399;51.686;8.684;2023-07-24T06:57:28;98682.00;;;20.70
29423;BMP180;16399;51.686;8.684;2023-07-24T07:00:31;98680.00;;;20.20
29423;BMP180;16399;51.686;8.684;2023-07-24T07:03:33;98677.00;;;19.70
29423;BMP180;16399;51.686;8.684;2023-07-24T07:06:39;98674.00;;;19.30
29423;BMP180;16399;51.686;8.684;2023-07-24T07:09:41;98672.00;;;19.10
29423;BMP180;16399;51.686;8.684;2023-07-24T07:12:43;98688.00;;;18.90
29423;BMP180;16399;51.686;8.684;2023-07-24T07:15:46;98688.00;;;18.70
29423;BMP180;16399;51.686;8.684;2023-07-24T07:18:48;98684.00;;;18.60
29423;BMP180;16399;51.686;8.684;2023-07-24T07:21:50;98700.00;;;18.50
29423;BMP180;16399;51.686;8.684;2023-07-24T07:24:53;98686.00;;;18.50
29423;BMP180;16399;51.686;8.684;2023-07-24T07:27:55;98684.00;;;18.50
29423;BMP180;16399;51.686;8.684;2023-07-24T07:30:57;98679.00;;;18.40
29423;BMP180;16399;51.686;8.684;2023-07-24T07:34:00;98680.00;;;18.30
29423;BMP180;16399;51.686;8.684;2023-07-24T07:37:02;98678.00;;;18.30
29423;BMP180;16399;51.686;8.684;2023-07-24T07:40:05;98673.00;;;18.30
29423;BMP180;16399;51.686;8.684;2023-07-24T07:43:08;98673.00;;;18.50
29423;BMP180;16399;51.686;8.684;2023-07-24T07:46:10;98663.00;;;18.70
29423;BMP180;16399;51.686;8.684;2023-07-24T07:49:13;98660.00;;;18.90
29423;BMP180;16399;51.686;8.684;2023-07-24T07:52:15;98655.00;;;19.20
29423;BMP180;16399;51.686;8.684;2023-07-24T07:55:19;98652.00;;;19.50
29423;BMP180;16399;51.686;8.684;2023-07-24T07:58:21;98656.00;;;19.60
29423;BMP180;16399;51.686;8.684;2023-07-24T08:01:24;98650.00;;;19.80
29423;BMP180;16399;51.686;8.684;2023-07-24T08:04:26;98647.00;;;20.00
29423;BMP180;16399;51.686;8.684;2023-07-24T08:07:30;98635.00;;;20.20
29423;BMP180;16399;51.686;8.684;2023-07-24T08:10:32;98626.00;;;20.40
29423;BMP180;16399;51.686;8.684;2023-07-24T08:13:35;98626.00;;;20.60
29423;BMP180;16399;51.686;8.684;2023-07-24T08:16:37;98624.00;;;20.80
29423;BMP180;16399;51.686;8.684;2023-07-24T08:19:39;98613.00;;;20.90
29423;BMP180;16399;51.686;8.684;2023-07-24T08:22:42;98618.00;;;21.00
29423;BMP180;16399;51.686;8.684;2023-07-24T08:25:56;98611.00;;;21.10
29423;BMP180;16399;51.686;8.684;2023-07-24T08:28:58;98619.00;;;21.20
29423;BMP180;16399;51.686;8.684;2023-07-24T08:32:01;98615.00;;;21.30
29423;BMP180;16399;51.686;8.684;2023-07-24T08:35:03;98617.00;;;21.50
29423;BMP180;16399;51.686;8.684;2023-07-24T08:38:06;98606.00;;;21.70
29423;BMP180;16399;51.686;8.684;2023-07-24T08:41:13;98615.00;;;21.80
29423;BMP180;16399;51.686;8.684;2023-07-24T08:44:16;98619.00;;;22.00
29423;BMP180;16399;51.686;8.684;2023-07-24T08:47:19;98609.00;;;22.10
29423;BMP180;16399;51.686;8.684;2023-07-24T08:50:21;98616.00;;;22.10
29423;BMP180;16399;51.686;8.684;2023-07-24T08:53:24;98604.00;;;22.20
29423;BMP180;16399;51.686;8.684;2023-07-24T08:56:26;98608.00;;;22.20
29423;BMP180;16399;51.686;8.684;2023-07-24T08:59:28;98606.00;;;22.40
29423;BMP180;16399;51.686;8.684;2023-07-24T09:02:32;98605.00;;;22.50
29423;BMP180;16399;51.686;8.684;2023-07-24T09:05:35;98611.00;;;22.50
29423;BMP180;16399;51.686;8.684;2023-07-24T09:08:44;98618.00;;;22.40
29423;BMP180;16399;51.686;8.684;2023-07-24T09:11:52;98628.00;;;22.40
29423;BMP180;16399;51.686;8.684;2023-07-24T09:15:03;98625.00;;;22.30
29423;BMP180;16399;51.686;8.684;2023-07-24T09:18:05;98637.00;;;22.20
29423;BMP180;16399;51.686;8.684;2023-07-24T09:21:08;98626.00;;;22.10
29423;BMP180;16399;51.686;8.684;2023-07-24T09:24:12;98623.00;;;21.90
29423;BMP180;16399;51.686;8.684;2023-07-24T09:27:14;98623.00;;;21.80
29423;BMP180;16399;51.686;8.684;2023-07-24T09:30:16;98625.00;;;21.80
29423;BMP180;16399;51.686;8.684;2023-07-24T09:33:33;98626.00;;;21.70
29423;BMP180;16399;51.686;8.684;2023-07-24T09:36:24;98621.00;;;21.70
29423;BMP180;16399;51.686;8.684;2023-07-24T09:39:27;98616.00;;;21.80
29423;BMP180;16399;51.686;8.684;2023-07-24T09:42:36;98615.00;;;21.80
29423;BMP180;16399;51.686;8.684;2023-07-24T09:45:39;98609.00;;;22.00
29423;BMP180;16399;51.686;8.684;2023-07-24T09:48:41;98606.00;;;22.30
29423;BMP180;16399;51.686;8.684;2023-07-24T09:51:46;98594.00;;;22.60
29423;BMP180;16399;51.686;8.684;2023-07-24T09:55:10;98595.00;;;22.90
29423;BMP180;16399;51.686;8.684;2023-07-24T09:58:13;98595.00;;;23.10
29423;BMP180;16399;51.686;8.684;2023-07-24T10:01:17;98581.00;;;23.10
29423;BMP180;16399;51.686;8.684;2023-07-24T10:04:20;98587.00;;;23.20
29423;BMP180;16399;51.686;8.684;2023-07-24T10:07:23;98583.00;;;23.20
29423;BMP180;16399;51.686;8.684;2023-07-24T10:10:26;98587.00;;;23.30
29423;BMP180;16399;51.686;8.684;2023-07-24T10:13:30;98583.00;;;23.40
29423;BMP180;16399;51.686;8.684;2023-07-24T10:16:35;98587.00;;;23.30
29423;BMP180;16399;51.686;8.684;2023-07-24T10:19:39;98589.00;;;23.20
29423;BMP180;16399;51.686;8.684;2023-07-24T10:22:43;98590.00;;;23.10
29423;BMP180;16399;51.686;8.684;2023-07-24T10:25:49;98581.00;;;23.00
29423;BMP180;16399;51.686;8.684;2023-07-24T10:28:53;98570.00;;;23.00
29423;BMP180;16399;51.686;8.684;2023-07-24T10:31:56;98568.00;;;22.90
29423;BMP180;16399;51.686;8.684;2023-07-24T10:35:05;98560.00;;;23.00
29423;BMP180;16399;51.686;8.684;2023-07-24T10:38:03;98562.00;;;23.20
29423;BMP180;16399;51.686;8.684;2023-07-24T10:41:07;98558.00;;;23.40
29423;BMP180;16399;51.686;8.684;2023-07-24T10:44:10;98561.00;;;23.70
29423;BMP180;16399;51.686;8.684;2023-07-24T10:47:12;98557.00;;;23.80
29423;BMP180;16399;51.686;8.684;2023-07-24T10:50:14;98553.00;;;24.00
29423;BMP180;16399;51.686;8.684;2023-07-24T10:53:19;98555.00;;;24.10
29423;BMP180;16399;51.686;8.684;2023-07-24T10:56:22;98563.00;;;24.20
29423;BMP180;16399;51.686;8.684;2023-07-24T10:59:35;98553.00;;;24.30
29423;BMP180;16399;51.686;8.684;2023-07-24T11:02:29;98560.00;;;24.20
29423;BMP180;16399;51.686;8.684;2023-07-24T11:05:33;98564.00;;;24.10
29423;BMP180;16399;51.686;8.684;2023-07-24T11:08:35;98555.00;;;24.00
29423;BMP180;16399;51.686;8.684;2023-07-24T11:11:39;98563.00;;;23.90
29423;BMP180;16399;51.686;8.684;2023-07-24T11:14:51;98565.00;;;23.90
29423;BMP180;16399;51.686;8.684;2023-07-24T11:17:56;98556.00;;;23.80
29423;BMP180;16399;51.686;8.684;2023-07-24T11:20:59;98567.00;;;23.90
29423;BMP180;16399;51.686;8.684;2023-07-24T11:24:05;98570.00;;;23.90
29423;BMP180;16399;51.686;8.684;2023-07-24T11:27:16;98562.00;;;23.80
29423;BMP180;16399;51.686;8.684;2023-07-24T11:30:20;98563.00;;;23.80
29423;BMP180;16399;51.686;8.684;2023-07-24T11:33:23;98546.00;;;23.70
29423;BMP180;16399;51.686;8.684;2023-07-24T11:36:26;98543.00;;;23.80
29423;BMP180;16399;51.686;8.684;2023-07-24T11:39:29;98540.00;;;24.00
29423;BMP180;16399;51.686;8.684;2023-07-24T11:42:31;98546.00;;;24.20
29423;BMP180;16399;51.686;8.684;2023-07-24T11:45:43;98538.00;;;24.30
29423;BMP180;16399;51.686;8.684;2023-07-24T11:49:06;98526.00;;;24.30
29423;BMP180;16399;51.686;8.684;2023-07-24T11:52:08;98516.00;;;24.40
29423;BMP180;16399;51.686;8.684;2023-07-24T11:55:12;98517.00;;;24.40
29423;BMP180;16399;51.686;8.684;2023-07-24T11:58:15;98502.00;;;24.40
29423;BMP180;16399;51.686;8.684;2023-07-24T12:01:18;98493.00;;;24.30
29423;BMP180;16399;51.686;8.684;2023-07-24T12:04:20;98480.00;;;24.20
29423;BMP180;16399;51.686;8.684;2023-07-24T12:07:33;98490.00;;;24.10
29423;BMP180;16399;51.686;8.684;2023-07-24T12:10:38;98483.00;;;24.00
29423;BMP180;16399;51.686;8.684;2023-07-24T12:13:41;98487.00;;;23.90
29423;BMP180;16399;51.686;8.684;2023-07-24T12:16:43;98476.00;;;23.90
29423;BMP180;16399;51.686;8.684;2023-07-24T12:19:45;98484.00;;;23.90
29423;BMP180;16399;51.686;8.684;2023-07-24T12:22:48;98476.00;;;23.90
29423;BMP180;16399;51.686;8.684;2023-07-24T12:25:50;98466.00;;;24.00
29423;BMP180;16399;51.686;8.684;2023-07-24T12:28:53;98467.00;;;24.10
29423;BMP180;16399;51.686;8.684;2023-07-24T12:31:56;98456.00;;;24.30
29423;BMP180;16399;51.686;8.684;2023-07-24T12:34:58;98463.00;;;24.40
29423;BMP180;16399;51.686;8.684;2023-07-24T12:38:00;98461.00;;;24.40
29423;BMP180;16399;51.686;8.684;2023-07-24T12:41:02;98462.00;;;24.30
29423;BMP180;16399;51.686;8.684;2023-07-24T12:44:05;98458.00;;;24.20
29423;BMP180;16399;51.686;8.684;2023-07-24T12:47:07;98461.00;;;24.10
29423;BMP180;16399;51.686;8.684;2023-07-24T12:50:10;98464.00;;;23.90
29423;BMP180;16399;51.686;8.684;2023-07-24T12:53:12;98461.00;;;23.70
29423;BMP180;16399;51.686;8.684;2023-07-24T12:56:14;98470.00;;;23.50
29423;BMP180;16399;51.686;8.684;2023-07-24T12:59:18;98464.00;;;23.30
29423;BMP180;16399;51.686;8.684;2023-07-24T13:02:20;98445.00;;;23.20
29423;BMP180;16399;51.686;8.684;2023-07-24T13:05:22;98429.00;;;23.20
29423;BMP180;16399;51.686;8.684;2023-07-24T13:08:25;98423.00;;;23.10
29423;BMP180;16399;51.686;8.684;2023-07-24T13:11:27;98422.00;;;22.90
29423;BMP180;16399;51.686;8.684;2023-07-24T13:14:29;98437.00;;;22.80
29423;BMP180;16399;51.686;8.684;2023-07-24T13:17:31;98462.00;;;22.50
29423;BMP180;16399;51.686;8.684;2023-07-24T13:20:34;98454.00;;;22.20
29423;BMP180;16399;51.686;8.684;2023-07-24T13:23:36;98446.00;;;21.70
29423;BMP180;16399;51.686;8.684;2023-07-24T13:26:39;98445.00;;;21.10
29423;BMP180;16399;51.686;8.684;2023-07-24T13:29:41;98477.00;;;20.50
29423;BMP180;16399;51.686;8.684;2023-07-24T13:32:44;98473.00;;;19.90
29423;BMP180;16399;51.686;8.684;2023-07-24T13:35:46;98522.00;;;19.40
29423;BMP180;16399;51.686;8.684;2023-07-24T13:38:48;98558.00;;;19.10
29423;BMP180;16399;51.686;8.684;2023-07-24T13:41:51;98561.00;;;18.80
29423;BMP180;16399;51.686;8.684;2023-07-24T13:44:53;98568.00;;;18.60
29423;BMP180;16399;51.686;8.684;2023-07-24T13:47:57;98601.00;;;18.30
29423;BMP180;16399;51.686;8.684;2023-07-24T13:51:00;98591.00;;;18.10
29423;BMP180;16399;51.686;8.684;2023-07-24T13:54:02;98546.00;;;17.80
29423;BMP180;16399;51.686;8.684;2023-07-24T13:57:04;98501.00;;;17.50
29423;BMP180;16399;51.686;8.684;2023-07-24T14:00:09;98464.00;;;17.30
29423;BMP180;16399;51.686;8.684;2023-07-24T14:03:11;98473.00;;;17.20
29423;BMP180;16399;51.686;8.684;2023-07-24T14:06:13;98481.00;;;17.30
29423;BMP180;16399;51.686;8.684;2023-07-24T14:09:17;98487.00;;;17.40
29423;BMP180;16399;51.686;8.684;2023-07-24T14:12:19;98492.00;;;17.60
29423;BMP180;16399;51.686;8.684;2023-07-24T14:15:21;98522.00;;;17.80
29423;BMP180;16399;51.686;8.684;2023-07-24T14:18:23;98511.00;;;18.00
29423;BMP180;16399;51.686;8.684;2023-07-24T14:21:26;98518.00;;;18.20
29423;BMP180;16399;51.686;8.684;2023-07-24T14:24:28;98518.00;;;18.30
29423;BMP180;16399;51.686;8.684;2023-07-24T14:27:30;98513.00;;;18.30
29423;BMP180;16399;51.686;8.684;2023-07-24T14:30:32;98508.00;;;18.40
29423;BMP180;16399;51.686;8.684;2023-07-24T14:33:35;98473.00;;;18.40
29423;BMP180;16399;51.686;8.684;2023-07-24T14:36:38;98461.00;;;18.50
29423;BMP180;16399;51.686;8.684;2023-07-24T14:39:40;98477.00;;;18.50
29423;BMP180;16399;51.686;8.684;2023-07-24T14:42:43;98477.00;;;18.60
29423;BMP180;16399;51.686;8.684;2023-07-24T14:45:45;98468.00;;;18.60
29423;BMP180;16399;51.686;8.684;2023-07-24T14:48:47;98453.00;;;18.70
29423;BMP180;16399;51.686;8.684;2023-07-24T14:51:50;98449.00;;;18.80
29423;BMP180;16399;51.686;8.684;2023-07-24T14:54:52;98437.00;;;18.90
29423;BMP180;16399;51.686;8.684;2023-07-24T14:57:54;98417.00;;;18.90
29423;BMP180;16399;51.686;8.684;2023-07-24T15:00:56;98412.00;;;19.00
29423;BMP180;16399;51.686;8.684;2023-07-24T15:04:00;98413.00;;;18.90
29423;BMP180;16399;51.686;8.684;2023-07-24T15:07:02;98417.00;;;18.90
29423;BMP180;16399;51.686;8.684;2023-07-24T15:10:05;98433.00;;;18.80
29423;BMP180;16399;51.686;8.684;2023-07-24T15:13:09;98438.00;;;18.70
29423;BMP180;16399;51.686;8.684;2023-07-24T15:16:11;98438.00;;;18.50
29423;BMP180;16399;51.686;8.684;2023-07-24T15:19:13;98444.00;;;18.40
29423;BMP180;16399;51.686;8.684;2023-07-24T15:22:16;98432.00;;;18.50
29423;BMP180;16399;51.686;8.684;2023-07-24T15:25:18;98432.00;;;18.60
29423;BMP180;16399;51.686;8.684;2023-07-24T15:28:20;98429.00;;;18.70
29423;BMP180;16399;51.686;8.684;2023-07-24T15:31:23;98416.00;;;18.80
29423;BMP180;16399;51.686;8.684;2023-07-24T15:34:25;98418.00;;;18.90
29423;BMP180;16399;51.686;8.684;2023-07-24T15:37:28;98415.00;;;19.10
29423;BMP180;16399;51.686;8.684;2023-07-24T15:40:33;98406.00;;;19.20
29423;BMP180;16399;51.686;8.684;2023-07-24T15:43:35;98410.00;;;19.30
29423;BMP180;16399;51.686;8.684;2023-07-24T15:46:37;98431.00;;;19.40
29423;BMP180;16399;51.686;8.684;2023-07-24T15:49:40;98437.00;;;19.30
29423;BMP180;16399;51.686;8.684;2023-07-24T15:52:42;98432.00;;;19.20
29423;BMP180;16399;51.686;8.684;2023-07-24T15:55:44;98440.00;;;19.20
29423;BMP180;16399;51.686;8.684;2023-07-24T15:58:48;98436.00;;;19.20
29423;BMP180;16399;51.686;8.684;2023-07-24T16:01:51;98425.00;;;19.20
29423;BMP180;16399;51.686;8.684;2023-07-24T16:04:53;98431.00;;;19.30
29423;BMP180;16399;51.686;8.684;2023-07-24T16:07:55;98437.00;;;19.20
29423;BMP180;16399;51.686;8.684;2023-07-24T16:10:58;98451.00;;;19.20
29423;BMP180;16399;51.686;8.684;2023-07-24T16:14:00;98457.00;;;19.20
29423;BMP180;16399;51.686;8.684;2023-07-24T16:17:03;98457.00;;;19.10
29423;BMP180;16399;51.686;8.684;2023-07-24T16:20:06;98451.00;;;19.00
29423;BMP180;16399;51.686;8.684;2023-07-24T16:23:09;98456.00;;;18.90
29423;BMP180;16399;51.686;8.684;2023-07-24T16:26:11;98451.00;;;18.70
29423;BMP180;16399;51.686;8.684;2023-07-24T16:29:13;98447.00;;;18.70
29423;BMP180;16399;51.686;8.684;2023-07-24T16:32:16;98463.00;;;18.60
29423;BMP180;16399;51.686;8.684;2023-07-24T16:35:18;98465.00;;;18.50
29423;BMP180;16399;51.686;8.684;2023-07-24T16:38:20;98458.00;;;18.50
29423;BMP180;16399;51.686;8.684;2023-07-24T16:41:23;98453.00;;;18.40
29423;BMP180;16399;51.686;8.684;2023-07-24T16:44:26;98467.00;;;18.40
29423;BMP180;16399;51.686;8.684;2023-07-24T16:47:29;98457.00;;;18.30
29423;BMP180;16399;51.686;8.684;2023-07-24T16:50:32;98462.00;;;18.30
29423;BMP180;16399;51.686;8.684;2023-07-24T16:53:36;98449.00;;;18.30
29423;BMP180;16399;51.686;8.684;2023-07-24T16:56:38;98456.00;;;18.40
29423;BMP180;16399;51.686;8.684;2023-07-24T16:59:41;98460.00;;;18.50
29423;BMP180;16399;51.686;8.684;2023-07-24T17:02:44;98470.00;;;18.60
29423;BMP180;16399;51.686;8.684;2023-07-24T17:05:46;98468.00;;;18.60
29423;BMP180;16399;51.686;8.684;2023-07-24T17:08:48;98473.00;;;18.70
29423;BMP180;16399;51.686;8.684;2023-07-24T17:11:51;98475.00;;;18.80
29423;BMP180;16399;51.686;8.684;2023-07-24T17:14:53;98480.00;;;18.80
29423;BMP180;16399;51.686;8.684;2023-07-24T17:17:56;98473.00;;;18.90
29423;BMP180;16399;51.686;8.684;2023-07-24T17:20:58;98468.00;;;18.80
29423;BMP180;16399;51.686;8.684;2023-07-24T17:24:01;98470.00;;;18.80
29423;BMP180;16399;51.686;8.684;2023-07-24T17:27:03;98480.00;;;18.70
29423;BMP180;16399;51.686;8.684;2023-07-24T17:30:07;98487.00;;;18.60
29423;BMP180;16399;51.686;8.684;2023-07-24T17:33:09;98489.00;;;18.60
29423;BMP180;16399;51.686;8.684;2023-07-24T17:36:11;98485.00;;;18.40
29423;BMP180;16399;51.686;8.684;2023-07-24T17:39:13;98495.00;;;18.40